createdAt,value
2023-04-29T00:00:15.848Z,38.16
2023-04-29T00:01:15.861Z,38.11
2023-04-29T00:02:15.898Z,38.11
2023-04-29T00:03:16.130Z,38.13
2023-04-29T00:04:16.065Z,38.14
2023-04-29T00:05:16.145Z,38.13
2023-04-29T00:06:17.693Z,38.07
2023-04-29T00:07:16.012Z,38.06
2023-04-29T00:08:16.018Z,38.09
2023-04-29T00:09:16.018Z,38.09
2023-04-29T00:10:16.075Z,38.14
2023-04-29T00:11:16.092Z,38.10
2023-04-29T00:12:16.049Z,38.09
2023-04-29T00:13:16.119Z,38.11
2023-04-29T00:14:16.053Z,38.10
2023-04-29T00:15:16.037Z,38.14
2023-04-29T00:16:16.100Z,38.12
2023-04-29T00:17:16.050Z,38.15
2023-04-29T00:18:16.107Z,38.12
2023-04-29T00:19:16.105Z,38.15
2023-04-29T00:20:16.104Z,38.13
2023-04-29T00:21:16.061Z,38.16
2023-04-29T00:22:16.105Z,38.16
2023-04-29T00:23:16.089Z,38.12
2023-04-29T00:24:16.188Z,38.14
2023-04-29T00:25:16.096Z,38.16
2023-04-29T00:26:16.120Z,38.14
2023-04-29T00:27:16.155Z,38.13
2023-04-29T00:28:16.145Z,38.16
2023-04-29T00:29:16.199Z,38.14
2023-04-29T00:30:16.221Z,38.13
2023-04-29T00:31:16.227Z,38.12
2023-04-29T00:32:16.159Z,38.12
2023-04-29T00:33:16.159Z,38.09
2023-04-29T00:34:16.194Z,38.09
2023-04-29T00:35:16.297Z,38.10
2023-04-29T00:36:16.260Z,38.09
2023-04-29T00:37:16.265Z,38.07
2023-04-29T00:38:16.288Z,38.08
2023-04-29T00:39:16.292Z,38.09
2023-04-29T00:40:16.281Z,38.10
2023-04-29T00:41:16.325Z,38.06
2023-04-29T00:42:16.344Z,38.07
2023-04-29T00:43:16.347Z,38.10
2023-04-29T00:44:16.342Z,38.11
2023-04-29T00:45:16.366Z,38.09
2023-04-29T00:46:16.389Z,38.10
2023-04-29T00:47:16.383Z,38.09
2023-04-29T00:48:16.445Z,38.08
2023-04-29T00:49:16.478Z,38.07
2023-04-29T00:50:16.561Z,38.08
2023-04-29T00:51:16.521Z,38.07
2023-04-29T00:52:16.488Z,38.10
2023-04-29T00:53:16.525Z,38.06
2023-04-29T00:54:16.525Z,38.07
2023-04-29T00:55:16.490Z,38.03
2023-04-29T00:56:16.524Z,38.04
2023-04-29T00:57:16.532Z,38.04
2023-04-29T00:58:16.537Z,38.06
2023-04-29T00:59:16.555Z,38.05
2023-04-29T01:00:16.571Z,38.06
2023-04-29T01:01:17.042Z,38.04
2023-04-29T01:02:16.645Z,38.04
2023-04-29T01:03:16.819Z,38.06
2023-04-29T01:04:16.962Z,38.07
2023-04-29T01:05:16.701Z,38.05
2023-04-29T01:06:16.712Z,38.04
2023-04-29T01:07:16.779Z,38.04
2023-04-29T01:08:18.429Z,38.05
2023-04-29T01:09:16.774Z,38.02
2023-04-29T01:10:16.813Z,38.04
2023-04-29T01:11:16.801Z,38.10
2023-04-29T01:12:16.806Z,38.06
2023-04-29T01:13:16.838Z,38.06
2023-04-29T01:14:16.873Z,38.05
2023-04-29T01:15:16.941Z,38.02
2023-04-29T01:16:17.055Z,38.02
2023-04-29T01:17:16.978Z,38.01
2023-04-29T01:18:16.998Z,38.02
2023-04-29T01:19:17.042Z,37.99
2023-04-29T01:20:17.083Z,38.01
2023-04-29T01:21:17.069Z,37.98
2023-04-29T01:22:17.122Z,38.02
2023-04-29T01:23:17.089Z,38.02
2023-04-29T01:24:17.098Z,38.02
2023-04-29T01:25:17.154Z,38.03
2023-04-29T01:26:17.162Z,38.02
2023-04-29T01:27:17.200Z,38.04
2023-04-29T01:28:17.169Z,38.00
2023-04-29T01:29:17.225Z,38.03
2023-04-29T01:30:17.187Z,37.99
2023-04-29T01:31:17.216Z,38.01
2023-04-29T01:32:17.188Z,37.98
2023-04-29T01:33:17.173Z,37.99
2023-04-29T01:34:17.204Z,38.03
2023-04-29T01:35:17.259Z,38.06
2023-04-29T01:36:17.283Z,38.03
2023-04-29T01:37:17.244Z,38.04
2023-04-29T01:38:17.283Z,38.05
2023-04-29T01:39:17.253Z,38.04
2023-04-29T01:40:17.277Z,38.04
2023-04-29T01:41:17.294Z,38.00
2023-04-29T01:42:17.252Z,38.05
2023-04-29T01:43:17.252Z,38.05
2023-04-29T01:44:17.264Z,38.00
2023-04-29T01:45:17.294Z,38.00
2023-04-29T01:46:17.298Z,38.02
2023-04-29T01:47:17.298Z,38.00
2023-04-29T01:48:17.320Z,38.02
2023-04-29T01:49:17.288Z,38.01
2023-04-29T01:50:17.294Z,38.00
2023-04-29T01:51:17.576Z,38.02
2023-04-29T01:52:17.295Z,38.02
2023-04-29T01:53:17.311Z,37.97
2023-04-29T01:54:17.340Z,38.02
2023-04-29T01:55:17.284Z,37.99
2023-04-29T01:56:17.311Z,37.98
2023-04-29T01:57:17.309Z,37.98
2023-04-29T01:58:17.308Z,38.00
2023-04-29T01:59:17.278Z,37.98
2023-04-29T02:00:17.277Z,37.97
2023-04-29T02:01:17.636Z,37.94
2023-04-29T02:02:17.273Z,37.97
2023-04-29T02:03:17.470Z,37.96
2023-04-29T02:04:17.348Z,37.98
2023-04-29T02:05:17.331Z,37.98
2023-04-29T02:06:19.088Z,37.99
2023-04-29T02:07:17.369Z,37.96
2023-04-29T02:08:17.384Z,38.00
2023-04-29T02:09:17.333Z,37.99
2023-04-29T02:10:17.374Z,38.00
2023-04-29T02:11:17.332Z,37.98
2023-04-29T02:12:17.362Z,37.98
2023-04-29T02:13:17.310Z,37.98
2023-04-29T02:14:17.397Z,37.99
2023-04-29T02:15:17.314Z,37.99
2023-04-29T02:16:17.416Z,38.00
2023-04-29T02:17:17.351Z,37.97
2023-04-29T02:18:17.302Z,37.98
2023-04-29T02:19:17.339Z,37.96
2023-04-29T02:20:17.289Z,37.97
2023-04-29T02:21:17.300Z,37.95
2023-04-29T02:22:17.334Z,37.97
2023-04-29T02:23:17.300Z,37.96
2023-04-29T02:24:17.270Z,37.95
2023-04-29T02:25:17.271Z,37.94
2023-04-29T02:26:17.315Z,37.93
2023-04-29T02:27:17.289Z,37.94
2023-04-29T02:28:17.272Z,37.89
2023-04-29T02:29:17.260Z,37.93
2023-04-29T02:30:17.273Z,37.92
2023-04-29T02:31:17.266Z,37.94
2023-04-29T02:32:17.460Z,37.90
2023-04-29T02:33:17.338Z,37.92
2023-04-29T02:34:17.301Z,37.92
2023-04-29T02:35:17.351Z,37.95
2023-04-29T02:36:17.296Z,37.95
2023-04-29T02:37:17.304Z,37.94
2023-04-29T02:38:17.308Z,37.93
2023-04-29T02:39:17.323Z,37.94
2023-04-29T02:40:17.311Z,37.94
2023-04-29T02:41:17.336Z,37.92
2023-04-29T02:42:17.343Z,37.94
2023-04-29T02:43:17.363Z,37.90
2023-04-29T02:44:17.401Z,37.88
2023-04-29T02:45:17.422Z,37.88
2023-04-29T02:46:17.450Z,37.94
2023-04-29T02:47:17.493Z,37.88
2023-04-29T02:48:17.468Z,37.93
2023-04-29T02:49:17.600Z,37.92
2023-04-29T02:50:17.475Z,37.91
2023-04-29T02:51:17.471Z,37.88
2023-04-29T02:52:19.101Z,37.92
2023-04-29T02:53:17.457Z,37.90
2023-04-29T02:54:17.486Z,37.88
2023-04-29T02:55:17.493Z,37.91
2023-04-29T02:56:17.468Z,37.90
2023-04-29T02:57:17.475Z,37.89
2023-04-29T02:58:17.449Z,37.88
2023-04-29T02:59:17.485Z,37.88
2023-04-29T03:00:17.487Z,37.90
2023-04-29T03:01:17.497Z,37.88
2023-04-29T03:02:17.514Z,37.94
2023-04-29T03:03:17.546Z,37.90
2023-04-29T03:04:17.555Z,37.88
2023-04-29T03:05:17.473Z,37.89
2023-04-29T03:06:17.485Z,37.92
2023-04-29T03:07:17.519Z,37.92
2023-04-29T03:08:17.468Z,37.90
2023-04-29T03:09:17.508Z,37.89
2023-04-29T03:10:17.469Z,37.88
2023-04-29T03:11:17.484Z,37.88
2023-04-29T03:12:17.452Z,37.88
2023-04-29T03:13:17.457Z,37.87
2023-04-29T03:14:17.459Z,37.85
2023-04-29T03:15:17.421Z,37.85
2023-04-29T03:16:17.489Z,37.86
2023-04-29T03:17:17.420Z,37.86
2023-04-29T03:18:17.404Z,37.84
2023-04-29T03:19:17.431Z,37.83
2023-04-29T03:20:17.454Z,37.86
2023-04-29T03:21:17.408Z,37.84
2023-04-29T03:22:17.412Z,37.89
2023-04-29T03:23:17.401Z,37.85
2023-04-29T03:24:17.390Z,37.86
2023-04-29T03:25:17.425Z,37.87
2023-04-29T03:26:17.451Z,37.84
2023-04-29T03:27:17.469Z,37.83
2023-04-29T03:28:17.383Z,37.85
2023-04-29T03:29:17.385Z,37.87
2023-04-29T03:30:17.407Z,37.85
2023-04-29T03:31:17.410Z,37.86
2023-04-29T03:32:17.416Z,37.83
2023-04-29T03:33:17.376Z,37.85
2023-04-29T03:34:17.376Z,37.88
2023-04-29T03:35:17.560Z,37.87
2023-04-29T03:36:17.559Z,37.89
2023-04-29T03:37:17.393Z,37.85
2023-04-29T03:38:17.358Z,37.85
2023-04-29T03:39:17.352Z,37.84
2023-04-29T03:40:17.353Z,37.87
2023-04-29T03:41:17.389Z,37.84
2023-04-29T03:42:17.392Z,37.86
2023-04-29T03:43:17.359Z,37.84
2023-04-29T03:44:17.388Z,37.84
2023-04-29T03:45:17.395Z,37.83
2023-04-29T03:46:17.389Z,37.84
2023-04-29T03:47:17.354Z,37.84
2023-04-29T03:48:17.346Z,37.86
2023-04-29T03:49:17.349Z,37.86
2023-04-29T03:50:17.365Z,37.84
2023-04-29T03:51:17.351Z,37.89
2023-04-29T03:52:17.361Z,37.84
2023-04-29T03:53:17.361Z,37.85
2023-04-29T03:54:17.369Z,37.87
2023-04-29T03:55:17.406Z,37.83
2023-04-29T03:56:17.589Z,37.87
2023-04-29T03:57:17.447Z,37.79
2023-04-29T03:58:17.456Z,37.77
2023-04-29T03:59:17.505Z,37.78
2023-04-29T04:00:17.523Z,37.80
2023-04-29T04:01:17.431Z,37.80
2023-04-29T04:02:17.539Z,37.82
2023-04-29T04:03:17.576Z,37.82
2023-04-29T04:04:17.664Z,37.81
2023-04-29T04:05:17.526Z,37.84
2023-04-29T04:06:17.470Z,37.82
2023-04-29T04:07:17.522Z,37.82
2023-04-29T04:08:17.505Z,37.82
2023-04-29T04:09:17.516Z,37.82
2023-04-29T04:10:17.529Z,37.83
2023-04-29T04:11:18.055Z,37.80
2023-04-29T04:12:17.522Z,37.81
2023-04-29T04:13:17.592Z,37.81
2023-04-29T04:14:17.525Z,37.80
2023-04-29T04:15:17.575Z,37.84
2023-04-29T04:16:17.590Z,37.83
2023-04-29T04:17:18.095Z,37.79
2023-04-29T04:18:17.635Z,37.83
2023-04-29T04:19:17.658Z,37.83
2023-04-29T04:20:17.673Z,37.83
2023-04-29T04:21:17.642Z,37.89
2023-04-29T04:22:17.684Z,37.89
2023-04-29T04:23:18.573Z,37.81
2023-04-29T04:24:17.743Z,37.86
2023-04-29T04:25:17.725Z,37.85
2023-04-29T04:26:17.684Z,37.84
2023-04-29T04:27:18.085Z,37.81
2023-04-29T04:28:17.759Z,37.83
2023-04-29T04:29:17.732Z,37.82
2023-04-29T04:30:17.712Z,37.83
2023-04-29T04:31:17.770Z,37.83
2023-04-29T04:32:17.718Z,37.86
2023-04-29T04:33:17.700Z,37.85
2023-04-29T04:34:17.710Z,37.86
2023-04-29T04:35:17.793Z,37.86
2023-04-29T04:36:17.715Z,37.88
2023-04-29T04:37:17.753Z,37.88
2023-04-29T04:38:17.731Z,37.87
2023-04-29T04:39:17.674Z,37.85
2023-04-29T04:40:17.806Z,37.87
2023-04-29T04:41:17.723Z,37.87
2023-04-29T04:42:17.717Z,37.84
2023-04-29T04:43:17.710Z,37.85
2023-04-29T04:44:17.692Z,37.84
2023-04-29T04:45:17.706Z,37.80
2023-04-29T04:46:17.792Z,37.81
2023-04-29T04:47:17.698Z,37.81
2023-04-29T04:48:17.727Z,37.81
2023-04-29T04:49:17.740Z,37.79
2023-04-29T04:50:17.773Z,37.80
2023-04-29T04:51:17.818Z,37.79
2023-04-29T04:52:18.138Z,37.80
2023-04-29T04:53:17.841Z,37.83
2023-04-29T04:54:17.800Z,37.80
2023-04-29T04:55:17.832Z,37.80
2023-04-29T04:56:17.804Z,37.82
2023-04-29T04:57:17.826Z,37.83
2023-04-29T04:58:17.874Z,37.85
2023-04-29T04:59:17.853Z,37.84
2023-04-29T05:00:17.870Z,37.82
2023-04-29T05:01:17.930Z,37.79
2023-04-29T05:02:17.953Z,37.82
2023-04-29T05:03:18.004Z,37.80
2023-04-29T05:04:17.996Z,37.79
2023-04-29T05:05:17.852Z,37.81
2023-04-29T05:06:17.877Z,37.81
2023-04-29T05:07:17.887Z,37.81
2023-04-29T05:08:17.885Z,37.79
2023-04-29T05:09:17.871Z,37.81
2023-04-29T05:10:17.893Z,37.78
2023-04-29T05:11:17.898Z,37.81
2023-04-29T05:12:17.861Z,37.81
2023-04-29T05:13:17.875Z,37.79
2023-04-29T05:14:17.865Z,37.77
2023-04-29T05:15:17.923Z,37.75
2023-04-29T05:16:18.006Z,37.74
2023-04-29T05:17:17.918Z,37.72
2023-04-29T05:18:17.928Z,37.75
2023-04-29T05:19:17.938Z,37.73
2023-04-29T05:20:17.976Z,37.69
2023-04-29T05:21:18.034Z,37.74
2023-04-29T05:22:18.050Z,37.73
2023-04-29T05:23:18.012Z,37.73
2023-04-29T05:24:18.038Z,37.73
2023-04-29T05:25:18.060Z,37.79
2023-04-29T05:26:18.091Z,37.77
2023-04-29T05:27:18.090Z,37.75
2023-04-29T05:28:18.126Z,37.75
2023-04-29T05:29:18.125Z,37.79
2023-04-29T05:30:18.108Z,37.77
2023-04-29T05:31:18.171Z,37.77
2023-04-29T05:32:18.186Z,37.78
2023-04-29T05:33:18.199Z,37.80
2023-04-29T05:34:18.172Z,37.78
2023-04-29T05:35:18.205Z,37.82
2023-04-29T05:36:18.204Z,37.80
2023-04-29T05:37:18.231Z,37.82
2023-04-29T05:38:18.243Z,37.81
2023-04-29T05:39:18.281Z,37.82
2023-04-29T05:40:18.245Z,37.79
2023-04-29T05:41:18.322Z,37.76
2023-04-29T05:42:18.295Z,37.78
2023-04-29T05:43:18.267Z,37.85
2023-04-29T05:44:18.332Z,37.81
2023-04-29T05:45:18.319Z,37.77
2023-04-29T05:46:18.339Z,37.77
2023-04-29T05:47:18.315Z,37.76
2023-04-29T05:48:18.295Z,37.77
2023-04-29T05:49:18.310Z,37.75
2023-04-29T05:50:18.364Z,37.77
2023-04-29T05:51:18.309Z,37.77
2023-04-29T05:52:18.320Z,37.74
2023-04-29T05:53:18.341Z,37.77
2023-04-29T05:54:18.349Z,37.77
2023-04-29T05:55:18.358Z,37.74
2023-04-29T05:56:18.376Z,37.74
2023-04-29T05:57:18.388Z,37.75
2023-04-29T05:58:18.411Z,37.78
2023-04-29T05:59:18.489Z,37.76
2023-04-29T06:00:18.611Z,37.75
2023-04-29T06:01:18.514Z,37.74
2023-04-29T06:02:18.591Z,37.77
2023-04-29T06:03:18.660Z,37.77
2023-04-29T06:04:18.672Z,37.78
2023-04-29T06:05:18.929Z,37.76
2023-04-29T06:06:18.678Z,37.77
2023-04-29T06:07:20.115Z,37.76
2023-04-29T06:08:18.563Z,37.74
2023-04-29T06:09:27.060Z,37.75
2023-04-29T06:10:19.569Z,37.74
2023-04-29T06:11:18.590Z,37.76
2023-04-29T06:12:18.571Z,37.72
2023-04-29T06:13:18.549Z,37.71
2023-04-29T06:14:18.533Z,37.77
2023-04-29T06:15:18.576Z,37.74
2023-04-29T06:16:18.626Z,37.75
2023-04-29T06:17:18.584Z,37.74
2023-04-29T06:18:19.102Z,37.73
2023-04-29T06:19:18.504Z,37.74
2023-04-29T06:20:18.570Z,37.77
2023-04-29T06:21:18.519Z,37.72
2023-04-29T06:22:18.625Z,37.71
2023-04-29T06:23:18.491Z,37.71
2023-04-29T06:24:18.454Z,37.73
2023-04-29T06:25:18.468Z,37.73
2023-04-29T06:26:18.496Z,37.72
2023-04-29T06:27:18.460Z,37.79
2023-04-29T06:28:18.467Z,37.72
2023-04-29T06:29:18.441Z,37.74
2023-04-29T06:30:18.496Z,37.77
2023-04-29T06:31:19.062Z,37.74
2023-04-29T06:32:18.444Z,37.72
2023-04-29T06:33:18.474Z,37.73
2023-04-29T06:34:18.478Z,37.75
2023-04-29T06:35:18.487Z,37.74
2023-04-29T06:36:18.517Z,37.74
2023-04-29T06:37:18.550Z,37.71
2023-04-29T06:38:18.516Z,37.69
2023-04-29T06:39:18.567Z,37.71
2023-04-29T06:40:18.614Z,37.70
2023-04-29T06:41:18.618Z,37.74
2023-04-29T06:42:18.647Z,37.74
2023-04-29T06:43:18.653Z,37.74
2023-04-29T06:44:18.690Z,37.75
2023-04-29T06:45:18.690Z,37.76
2023-04-29T06:46:18.715Z,37.75
2023-04-29T06:47:18.722Z,37.71
2023-04-29T06:48:18.747Z,37.76
2023-04-29T06:49:18.756Z,37.77
2023-04-29T06:50:18.791Z,37.77
2023-04-29T06:51:18.803Z,37.75
2023-04-29T06:52:18.814Z,37.76
2023-04-29T06:53:18.906Z,37.75
2023-04-29T06:54:18.858Z,37.75
2023-04-29T06:55:18.873Z,37.74
2023-04-29T06:56:18.907Z,37.75
2023-04-29T06:57:18.925Z,37.73
2023-04-29T06:58:18.918Z,37.71
2023-04-29T06:59:18.959Z,37.72
2023-04-29T07:00:18.956Z,37.71
2023-04-29T07:01:18.979Z,37.73
2023-04-29T07:02:19.075Z,37.70
2023-04-29T07:03:19.151Z,37.72
2023-04-29T07:04:19.064Z,37.70
2023-04-29T07:05:18.983Z,37.75
2023-04-29T07:06:19.101Z,37.75
2023-04-29T07:07:19.076Z,37.73
2023-04-29T07:08:19.097Z,37.74
2023-04-29T07:09:19.631Z,37.72
2023-04-29T07:10:19.161Z,37.74
2023-04-29T07:11:19.621Z,37.74
2023-04-29T07:12:19.193Z,37.75
2023-04-29T07:13:19.226Z,37.72
2023-04-29T07:14:20.163Z,37.74
2023-04-29T07:15:19.252Z,37.73
2023-04-29T07:16:19.313Z,37.72
2023-04-29T07:17:19.351Z,37.72
2023-04-29T07:18:19.249Z,37.76
2023-04-29T07:19:19.301Z,37.77
2023-04-29T07:20:21.281Z,37.74
2023-04-29T07:21:19.293Z,37.77
2023-04-29T07:22:19.293Z,37.76
2023-04-29T07:23:19.320Z,37.78
2023-04-29T07:24:19.371Z,37.80
2023-04-29T07:25:19.233Z,37.78
2023-04-29T07:26:21.182Z,37.78
2023-04-29T07:27:19.264Z,37.80
2023-04-29T07:28:19.240Z,37.81
2023-04-29T07:29:19.238Z,37.79
2023-04-29T07:30:19.211Z,37.81
2023-04-29T07:31:19.245Z,37.85
2023-04-29T07:32:19.295Z,37.81
2023-04-29T07:33:19.218Z,37.85
2023-04-29T07:34:19.183Z,37.84
2023-04-29T07:35:19.186Z,37.82
2023-04-29T07:36:19.201Z,37.84
2023-04-29T07:37:19.190Z,37.83
2023-04-29T07:38:19.213Z,37.85
2023-04-29T07:39:19.209Z,37.87
2023-04-29T07:40:19.204Z,37.87
2023-04-29T07:41:19.154Z,37.85
2023-04-29T07:42:19.127Z,37.84
2023-04-29T07:43:19.262Z,37.88
2023-04-29T07:44:19.098Z,37.84
2023-04-29T07:45:19.118Z,37.84
2023-04-29T07:46:19.125Z,37.83
2023-04-29T07:47:19.115Z,37.84
2023-04-29T07:48:19.106Z,37.85
2023-04-29T07:49:19.085Z,37.82
2023-04-29T07:50:19.081Z,37.84
2023-04-29T07:51:19.645Z,37.84
2023-04-29T07:52:19.033Z,37.84
2023-04-29T07:53:19.179Z,37.86
2023-04-29T07:54:19.032Z,37.85
2023-04-29T07:55:19.013Z,37.86
2023-04-29T07:56:19.040Z,37.83
2023-04-29T07:57:19.034Z,37.83
2023-04-29T07:58:19.020Z,37.84
2023-04-29T07:59:19.033Z,37.85
2023-04-29T08:00:18.996Z,37.85
2023-04-29T08:01:18.999Z,37.87
2023-04-29T08:02:19.018Z,37.88
2023-04-29T08:03:19.147Z,37.86
2023-04-29T08:04:19.130Z,37.84
2023-04-29T08:05:19.227Z,37.85
2023-04-29T08:06:19.029Z,37.91
2023-04-29T08:07:18.965Z,37.90
2023-04-29T08:08:18.936Z,37.90
2023-04-29T08:09:18.949Z,37.89
2023-04-29T08:10:18.994Z,37.86
2023-04-29T08:11:18.986Z,37.88
2023-04-29T08:12:18.955Z,37.90
2023-04-29T08:13:18.962Z,37.88
2023-04-29T08:14:18.998Z,37.86
2023-04-29T08:15:18.997Z,37.89
2023-04-29T08:16:19.091Z,37.87
2023-04-29T08:17:19.013Z,37.86
2023-04-29T08:18:19.063Z,37.87
2023-04-29T08:19:19.055Z,37.87
2023-04-29T08:20:19.070Z,37.91
2023-04-29T08:21:19.077Z,37.90
2023-04-29T08:22:19.078Z,37.91
2023-04-29T08:23:19.158Z,37.88
2023-04-29T08:24:19.170Z,37.88
2023-04-29T08:25:19.147Z,37.88
2023-04-29T08:26:20.684Z,37.91
2023-04-29T08:27:19.251Z,37.89
2023-04-29T08:28:19.634Z,37.91
2023-04-29T08:29:19.193Z,37.92
2023-04-29T08:30:19.192Z,37.92
2023-04-29T08:31:19.327Z,37.92
2023-04-29T08:32:19.224Z,37.92
2023-04-29T08:33:19.212Z,37.91
2023-04-29T08:34:19.236Z,37.92
2023-04-29T08:35:19.242Z,37.92
2023-04-29T08:36:19.248Z,37.90
2023-04-29T08:37:19.234Z,37.93
2023-04-29T08:38:19.234Z,37.90
2023-04-29T08:39:19.252Z,37.92
2023-04-29T08:40:19.237Z,37.92
2023-04-29T08:41:19.299Z,37.89
2023-04-29T08:42:19.571Z,37.90
2023-04-29T08:43:19.278Z,37.89
2023-04-29T08:44:19.285Z,37.91
2023-04-29T08:45:19.283Z,37.93
2023-04-29T08:46:19.297Z,37.91
2023-04-29T08:47:19.369Z,37.91
2023-04-29T08:48:19.374Z,37.90
2023-04-29T08:49:19.275Z,37.91
2023-04-29T08:50:19.299Z,37.90
2023-04-29T08:51:19.675Z,37.89
2023-04-29T08:52:19.318Z,37.92
2023-04-29T08:53:19.363Z,37.89
2023-04-29T08:54:19.395Z,37.91
2023-04-29T08:55:19.320Z,37.90
2023-04-29T08:56:19.353Z,37.92
2023-04-29T08:57:19.321Z,37.94
2023-04-29T08:58:19.344Z,37.91
2023-04-29T08:59:19.331Z,37.93
2023-04-29T09:00:19.345Z,37.93
2023-04-29T09:01:19.518Z,37.94
2023-04-29T09:02:19.477Z,37.92
2023-04-29T09:03:21.639Z,37.93
2023-04-29T09:04:19.382Z,37.95
2023-04-29T09:05:19.318Z,37.94
2023-04-29T09:06:19.738Z,37.91
2023-04-29T09:07:19.324Z,37.95
2023-04-29T09:08:19.324Z,37.96
2023-04-29T09:09:20.914Z,37.94
2023-04-29T09:10:19.294Z,37.93
2023-04-29T09:11:19.287Z,37.90
2023-04-29T09:12:19.300Z,37.92
2023-04-29T09:13:19.321Z,37.94
2023-04-29T09:14:19.287Z,37.92
2023-04-29T09:15:19.271Z,37.93
2023-04-29T09:16:19.298Z,37.94
2023-04-29T09:17:19.345Z,37.93
2023-04-29T09:18:19.251Z,37.97
2023-04-29T09:19:19.221Z,37.94
2023-04-29T09:20:19.238Z,37.94
2023-04-29T09:21:22.012Z,37.91
2023-04-29T09:22:19.227Z,37.93
2023-04-29T09:23:19.199Z,37.95
2023-04-29T09:24:19.317Z,37.93
2023-04-29T09:25:19.208Z,37.92
2023-04-29T09:26:19.210Z,37.93
2023-04-29T09:27:19.183Z,37.94
2023-04-29T09:28:19.256Z,37.93
2023-04-29T09:29:19.150Z,37.93
2023-04-29T09:30:19.316Z,37.92
2023-04-29T09:31:19.203Z,37.93
2023-04-29T09:32:19.168Z,37.94
2023-04-29T09:33:19.170Z,37.94
2023-04-29T09:34:19.150Z,37.93
2023-04-29T09:35:19.164Z,37.93
2023-04-29T09:36:19.091Z,37.92
2023-04-29T09:37:19.135Z,37.92
2023-04-29T09:38:19.105Z,37.93
2023-04-29T09:39:19.191Z,37.93
2023-04-29T09:40:19.065Z,37.92
2023-04-29T09:41:19.088Z,37.95
2023-04-29T09:42:19.066Z,37.92
2023-04-29T09:43:19.073Z,37.94
2023-04-29T09:44:19.101Z,37.95
2023-04-29T09:45:19.029Z,37.97
2023-04-29T09:46:19.174Z,37.93
2023-04-29T09:47:19.041Z,37.93
2023-04-29T09:48:19.070Z,37.91
2023-04-29T09:49:19.041Z,37.92
2023-04-29T09:50:19.008Z,37.92
2023-04-29T09:51:19.007Z,37.94
2023-04-29T09:52:18.999Z,37.93
2023-04-29T09:53:19.034Z,37.96
2023-04-29T09:54:18.981Z,37.97
2023-04-29T09:55:19.013Z,37.95
2023-04-29T09:56:18.966Z,37.94
2023-04-29T09:57:18.982Z,37.95
2023-04-29T09:58:18.994Z,37.94
2023-04-29T09:59:18.958Z,37.95
2023-04-29T10:00:19.033Z,37.95
2023-04-29T10:01:18.991Z,37.95
2023-04-29T10:02:19.117Z,37.97
2023-04-29T10:03:18.997Z,37.97
2023-04-29T10:04:18.955Z,37.96
2023-04-29T10:05:18.996Z,37.97
2023-04-29T10:06:19.743Z,37.98
2023-04-29T10:07:18.904Z,38.00
2023-04-29T10:08:18.959Z,37.99
2023-04-29T10:09:18.900Z,37.98
2023-04-29T10:10:18.891Z,37.97
2023-04-29T10:11:18.862Z,38.00
2023-04-29T10:12:18.901Z,38.00
2023-04-29T10:13:18.836Z,38.01
2023-04-29T10:14:18.863Z,38.03
2023-04-29T10:15:18.853Z,38.02
2023-04-29T10:16:18.892Z,38.02
2023-04-29T10:17:18.815Z,38.01
2023-04-29T10:18:18.972Z,38.01
2023-04-29T10:19:18.810Z,38.02
2023-04-29T10:20:18.819Z,38.04
2023-04-29T10:21:18.888Z,38.05
2023-04-29T10:22:18.916Z,38.05
2023-04-29T10:23:18.947Z,38.03
2023-04-29T10:24:18.942Z,38.05
2023-04-29T10:25:18.994Z,38.04
2023-04-29T10:26:19.033Z,38.05
2023-04-29T10:27:19.067Z,38.06
2023-04-29T10:28:19.070Z,38.07
2023-04-29T10:29:19.099Z,38.08
2023-04-29T10:30:19.183Z,38.08
2023-04-29T10:31:19.222Z,38.10
2023-04-29T10:32:19.207Z,38.11
2023-04-29T10:33:19.304Z,38.12
2023-04-29T10:34:19.289Z,38.13
2023-04-29T10:35:19.375Z,38.14
2023-04-29T10:36:19.400Z,38.13
2023-04-29T10:37:19.466Z,38.15
2023-04-29T10:38:19.481Z,38.18
2023-04-29T10:39:19.521Z,38.18
2023-04-29T10:40:19.515Z,38.22
2023-04-29T10:41:19.735Z,38.24
2023-04-29T10:42:19.596Z,38.29
2023-04-29T10:43:19.662Z,38.27
2023-04-29T10:44:19.708Z,38.29
2023-04-29T10:45:19.726Z,38.30
2023-04-29T10:46:19.845Z,38.27
2023-04-29T10:47:19.834Z,38.29
2023-04-29T10:48:19.854Z,38.32
2023-04-29T10:49:19.857Z,38.29
2023-04-29T10:50:19.882Z,38.29
2023-04-29T10:51:19.983Z,38.29
2023-04-29T10:52:20.050Z,38.30
2023-04-29T10:53:20.094Z,38.29
2023-04-29T10:54:20.041Z,38.31
2023-04-29T10:55:20.088Z,38.27
2023-04-29T10:56:20.121Z,38.28
2023-04-29T10:57:20.133Z,38.30
2023-04-29T10:58:20.146Z,38.29
2023-04-29T10:59:20.231Z,38.27
2023-04-29T11:00:20.198Z,38.25
2023-04-29T11:01:20.291Z,38.27
2023-04-29T11:02:20.272Z,38.27
2023-04-29T11:03:20.359Z,38.25
2023-04-29T11:04:20.392Z,38.23
2023-04-29T11:05:20.494Z,38.27
2023-04-29T11:06:20.460Z,38.26
2023-04-29T11:07:20.418Z,38.26
2023-04-29T11:08:20.506Z,38.26
2023-04-29T11:09:20.501Z,38.23
2023-04-29T11:10:20.531Z,38.24
2023-04-29T11:11:20.613Z,38.22
2023-04-29T11:12:20.632Z,38.25
2023-04-29T11:13:20.608Z,38.22
2023-04-29T11:14:20.661Z,38.23
2023-04-29T11:15:20.684Z,38.20
2023-04-29T11:16:20.727Z,38.20
2023-04-29T11:17:20.816Z,38.22
2023-04-29T11:18:20.810Z,38.24
2023-04-29T11:19:20.856Z,38.21
2023-04-29T11:20:20.817Z,38.18
2023-04-29T11:21:20.899Z,38.22
2023-04-29T11:22:20.870Z,38.22
2023-04-29T11:23:21.258Z,38.22
2023-04-29T11:24:20.937Z,38.19
2023-04-29T11:25:20.964Z,38.20
2023-04-29T11:26:21.041Z,38.20
2023-04-29T11:27:21.096Z,38.25
2023-04-29T11:28:21.101Z,38.22
2023-04-29T11:29:21.147Z,38.20
2023-04-29T11:30:21.192Z,38.21
2023-04-29T11:31:21.264Z,38.19
2023-04-29T11:32:21.295Z,38.21
2023-04-29T11:33:21.905Z,38.21
2023-04-29T11:34:21.305Z,38.21
2023-04-29T11:35:21.371Z,38.22
2023-04-29T11:36:21.786Z,38.20
2023-04-29T11:37:21.503Z,38.23
2023-04-29T11:38:21.443Z,38.24
2023-04-29T11:39:21.515Z,38.25
2023-04-29T11:40:21.491Z,38.23
2023-04-29T11:41:21.517Z,38.20
2023-04-29T11:42:21.536Z,38.22
2023-04-29T11:43:21.540Z,38.22
2023-04-29T11:44:21.551Z,38.20
2023-04-29T11:45:22.274Z,38.22
2023-04-29T11:46:21.677Z,38.18
2023-04-29T11:47:21.721Z,38.15
2023-04-29T11:48:21.665Z,38.13
2023-04-29T11:49:21.696Z,38.16
2023-04-29T11:50:22.279Z,38.13
2023-04-29T11:51:21.787Z,38.13
2023-04-29T11:52:21.800Z,38.11
2023-04-29T11:53:21.863Z,38.13
2023-04-29T11:54:21.845Z,38.12
2023-04-29T11:55:21.903Z,38.11
2023-04-29T11:56:21.977Z,38.08
2023-04-29T11:57:21.985Z,38.05
2023-04-29T11:58:22.045Z,38.08
2023-04-29T11:59:22.112Z,38.04
2023-04-29T12:00:22.122Z,38.04
2023-04-29T12:01:22.162Z,38.06
2023-04-29T12:02:22.336Z,38.04
2023-04-29T12:03:22.601Z,38.04
2023-04-29T12:04:22.760Z,38.01
2023-04-29T12:05:22.479Z,38.01
2023-04-29T12:06:22.383Z,38.02
2023-04-29T12:07:22.341Z,38.00
2023-04-29T12:08:22.553Z,38.03
2023-04-29T12:09:22.397Z,38.00
2023-04-29T12:10:22.441Z,37.98
2023-04-29T12:11:22.564Z,38.00
2023-04-29T12:12:22.525Z,37.97
2023-04-29T12:13:22.530Z,37.96
2023-04-29T12:14:22.635Z,37.93
2023-04-29T12:15:22.721Z,37.91
2023-04-29T12:16:22.741Z,37.95
2023-04-29T12:17:22.810Z,37.92
2023-04-29T12:18:22.835Z,37.90
2023-04-29T12:19:22.817Z,37.90
2023-04-29T12:20:22.881Z,37.91
2023-04-29T12:21:22.917Z,37.92
2023-04-29T12:22:23.002Z,37.92
2023-04-29T12:23:23.041Z,37.88
2023-04-29T12:24:23.049Z,37.90
2023-04-29T12:25:23.076Z,37.90
2023-04-29T12:26:23.847Z,37.90
2023-04-29T12:27:23.178Z,37.90
2023-04-29T12:28:23.241Z,37.88
2023-04-29T12:29:23.257Z,37.86
2023-04-29T12:30:23.280Z,37.86
2023-04-29T12:31:23.302Z,37.87
2023-04-29T12:32:23.336Z,37.86
2023-04-29T12:33:23.368Z,37.84
2023-04-29T12:34:23.395Z,37.85
2023-04-29T12:35:23.412Z,37.83
2023-04-29T12:36:23.456Z,37.86
2023-04-29T12:37:23.624Z,37.82
2023-04-29T12:38:23.499Z,37.83
2023-04-29T12:39:23.532Z,37.82
2023-04-29T12:40:23.622Z,37.82
2023-04-29T12:41:23.688Z,37.83
2023-04-29T12:42:23.634Z,37.80
2023-04-29T12:43:23.660Z,37.83
2023-04-29T12:44:23.699Z,37.79
2023-04-29T12:45:23.660Z,37.82
2023-04-29T12:46:23.828Z,37.80
2023-04-29T12:47:23.718Z,37.82
2023-04-29T12:48:30.098Z,37.81
2023-04-29T12:49:24.739Z,37.80
2023-04-29T12:50:23.701Z,37.78
2023-04-29T12:51:23.706Z,37.74
2023-04-29T12:52:23.763Z,37.74